createdAt,value
2019-04-04T00:01:05.790Z,99496.46
2019-04-04T00:06:02.992Z,99505.95
2019-04-04T00:10:56.424Z,99516.81
2019-04-04T00:15:50.587Z,99513.72
2019-04-04T00:20:44.301Z,99487.98
2019-04-04T00:25:40.309Z,99485.36
2019-04-04T00:30:34.018Z,99489.95
2019-04-04T00:35:30.959Z,99463.11
2019-04-04T00:40:26.757Z,99479.70
2019-04-04T00:45:29.479Z,99501.10
2019-04-04T00:50:45.942Z,99498.94
2019-04-04T00:56:33.208Z,99496.36
2019-04-04T01:01:27.152Z,99485.64
2019-04-04T01:06:21.324Z,99483.08
2019-04-04T01:11:18.239Z,99479.72
2019-04-04T01:16:33.337Z,99479.70
2019-04-04T01:21:27.082Z,99455.98
2019-04-04T01:26:20.638Z,99456.53
2019-04-04T01:31:15.547Z,99458.61
2019-04-04T01:36:09.110Z,99442.77
2019-04-04T01:41:04.410Z,99428.75
2019-04-04T01:45:58.266Z,99435.14
2019-04-04T01:50:53.462Z,99428.03
2019-04-04T01:55:47.192Z,99420.19
2019-04-04T02:00:40.691Z,99430.14
2019-04-04T02:05:34.154Z,99419.74
2019-04-04T02:10:27.739Z,99416.53
2019-04-04T02:15:21.200Z,99388.02
2019-04-04T02:20:14.674Z,99382.34
2019-04-04T02:25:08.267Z,99387.98
2019-04-04T02:30:01.737Z,99371.27
2019-04-04T02:34:55.130Z,99390.09
2019-04-04T02:39:48.619Z,99376.03
2019-04-04T02:44:42.141Z,99380.44
2019-04-04T02:49:35.785Z,99392.14
2019-04-04T02:54:29.366Z,99396.36
2019-04-04T02:59:22.791Z,99398.27
2019-04-04T03:04:16.293Z,99368.78
2019-04-04T03:09:10.464Z,99359.15
2019-04-04T03:14:04.680Z,99367.55
2019-04-04T03:18:58.383Z,99378.78
2019-04-04T03:23:51.850Z,99386.23
2019-04-04T03:28:45.360Z,99387.00
2019-04-04T03:33:39.031Z,99413.55
2019-04-04T03:38:32.504Z,99403.14
2019-04-04T03:43:26.645Z,99387.67
2019-04-04T03:48:20.508Z,99382.56
2019-04-04T03:53:17.336Z,99366.76
2019-04-04T03:58:09.611Z,99367.47
2019-04-04T04:03:03.302Z,99377.08
2019-04-04T04:07:56.871Z,99370.23
2019-04-04T04:12:50.318Z,99356.98
2019-04-04T04:17:45.438Z,99343.92
2019-04-04T04:22:39.407Z,99341.68
2019-04-04T04:27:34.673Z,99343.02
2019-04-04T04:32:28.060Z,99354.09
2019-04-04T04:37:21.654Z,99349.11
2019-04-04T04:42:15.353Z,99347.78
2019-04-04T04:47:09.079Z,99356.28
2019-04-04T04:52:02.706Z,99364.81
2019-04-04T04:56:56.177Z,99365.06
2019-04-04T05:01:50.501Z,99357.49
2019-04-04T05:06:45.017Z,99375.22
2019-04-04T05:11:38.608Z,99387.42
2019-04-04T05:16:32.117Z,99378.69
2019-04-04T05:21:28.646Z,99390.98
2019-04-04T05:26:20.802Z,99388.34
2019-04-04T05:31:14.304Z,99394.02
2019-04-04T05:36:07.755Z,99384.11
2019-04-04T05:41:01.519Z,99370.25
2019-04-04T05:45:54.999Z,99378.14
2019-04-04T05:50:48.659Z,99387.12
2019-04-04T05:55:42.478Z,99389.33
2019-04-04T06:00:37.158Z,99375.70
2019-04-04T06:05:31.896Z,99391.84
2019-04-04T06:10:28.819Z,99405.44
2019-04-04T06:15:22.373Z,99407.88
2019-04-04T06:20:16.073Z,99408.67
2019-04-04T06:25:09.655Z,99415.16
2019-04-04T06:30:03.550Z,99411.95
2019-04-04T06:34:57.174Z,99416.22
2019-04-04T06:39:50.629Z,99419.03
2019-04-04T06:44:44.451Z,99425.61
2019-04-04T06:49:37.996Z,99419.52
2019-04-04T06:54:31.533Z,99421.02
2019-04-04T06:59:25.673Z,99433.30
2019-04-04T07:04:19.341Z,99422.88
2019-04-04T07:09:13.547Z,99429.62
2019-04-04T07:14:07.300Z,99422.81
2019-04-04T07:19:00.975Z,99423.45
2019-04-04T07:23:54.508Z,99424.84
2019-04-04T07:28:49.637Z,99427.88
2019-04-04T07:33:43.400Z,99417.05
2019-04-04T07:38:37.087Z,99421.34
2019-04-04T07:43:30.551Z,99429.78
2019-04-04T07:48:24.025Z,99425.86
2019-04-04T07:53:19.881Z,99430.30
2019-04-04T07:58:13.448Z,99428.13
2019-04-04T08:03:07.027Z,99434.59
2019-04-04T08:08:00.730Z,99441.61
2019-04-04T08:12:54.207Z,99448.73
2019-04-04T08:17:47.630Z,99440.29
2019-04-04T08:22:41.166Z,99427.52
2019-04-04T08:27:34.792Z,99433.89
2019-04-04T08:32:28.662Z,99439.98
2019-04-04T08:37:22.222Z,99431.55
2019-04-04T08:42:15.934Z,99422.48
2019-04-04T08:47:09.338Z,99444.34
2019-04-04T08:52:02.818Z,99439.10
2019-04-04T08:56:56.346Z,99431.73
2019-04-04T09:01:49.806Z,99452.09
2019-04-04T09:06:43.296Z,99460.04
2019-04-04T09:11:36.791Z,99457.80
2019-04-04T09:16:30.271Z,99456.72
2019-04-04T09:21:23.789Z,99458.05
2019-04-04T09:26:17.688Z,99449.45
2019-04-04T09:31:11.156Z,99437.73
2019-04-04T09:36:04.815Z,99444.72
2019-04-04T09:40:58.616Z,99451.81
2019-04-04T09:45:52.310Z,99458.91
2019-04-04T09:50:45.836Z,99469.00
2019-04-04T09:55:39.309Z,99472.20
2019-04-04T10:00:32.903Z,99464.06
2019-04-04T10:05:26.249Z,99469.09
2019-04-04T10:10:20.145Z,99460.41
2019-04-04T10:15:15.265Z,99457.39
2019-04-04T10:20:09.093Z,99473.48
2019-04-04T10:25:02.533Z,99470.15
2019-04-04T10:29:56.981Z,99448.02
2019-04-04T10:34:50.240Z,99429.84
2019-04-04T10:39:43.828Z,99442.22
2019-04-04T10:44:37.477Z,99446.63
2019-04-04T10:49:31.266Z,99457.82
2019-04-04T10:54:26.111Z,99451.66
2019-04-04T10:59:20.197Z,99469.28
2019-04-04T11:04:13.608Z,99481.22
2019-04-04T11:09:07.661Z,99496.81
2019-04-04T11:14:01.221Z,99498.59
2019-04-04T11:18:54.671Z,99513.87
2019-04-04T11:23:48.223Z,99515.20
2019-04-04T11:28:41.900Z,99501.25
2019-04-04T11:33:35.539Z,99505.17
2019-04-04T11:38:29.148Z,99504.55
2019-04-04T11:43:22.810Z,99512.89
2019-04-04T11:48:16.251Z,99519.69
2019-04-04T11:53:10.009Z,99522.19
2019-04-04T11:58:03.287Z,99532.74
2019-04-04T12:02:56.645Z,99555.67
2019-04-04T12:07:50.153Z,99548.52
2019-04-04T12:12:44.120Z,99540.83
2019-04-04T12:17:37.743Z,99550.91
2019-04-04T12:22:31.285Z,99556.47
2019-04-04T12:27:24.672Z,99531.03
2019-04-04T12:32:18.056Z,99527.09
2019-04-04T12:37:11.408Z,99510.41
2019-04-04T12:42:05.076Z,99505.55
2019-04-04T12:46:58.617Z,99502.52
2019-04-04T12:51:52.226Z,99513.38
2019-04-04T12:56:45.903Z,99514.61
2019-04-04T13:01:39.421Z,99527.78
2019-04-04T13:06:32.931Z,99542.63
2019-04-04T13:11:26.146Z,99553.45
2019-04-04T13:16:19.723Z,99590.16
2019-04-04T13:21:13.332Z,99590.75
2019-04-04T13:26:07.052Z,99594.97
2019-04-04T13:31:00.515Z,99604.09
2019-04-04T13:35:54.103Z,99625.67
2019-04-04T13:40:47.790Z,99617.16
2019-04-04T13:45:41.169Z,99620.81
2019-04-04T13:50:34.250Z,99605.88
2019-04-04T13:55:27.973Z,99597.50
2019-04-04T14:00:21.804Z,99637.09
2019-04-04T14:05:15.056Z,99649.39
2019-04-04T14:10:08.359Z,99674.80
2019-04-04T14:15:01.784Z,99665.00
2019-04-04T14:19:55.204Z,99647.56
2019-04-04T14:24:48.700Z,99643.81
2019-04-04T14:29:42.146Z,99658.27
2019-04-04T14:34:35.638Z,99646.70
2019-04-04T14:39:29.133Z,99623.94
2019-04-04T14:44:22.658Z,99644.19
2019-04-04T14:49:16.112Z,99660.89
2019-04-04T14:54:09.734Z,99671.36
2019-04-04T14:59:03.164Z,99664.52
2019-04-04T15:03:56.541Z,99646.22
2019-04-04T15:08:50.012Z,99654.35
2019-04-04T15:13:43.469Z,99674.36
2019-04-04T15:18:37.066Z,99695.32
2019-04-04T15:23:30.761Z,99691.52
2019-04-04T15:28:26.134Z,99694.87
2019-04-04T15:33:19.476Z,99699.22
2019-04-04T15:38:13.242Z,99703.84
2019-04-04T15:43:06.810Z,99699.84
2019-04-04T15:48:00.321Z,99714.80
2019-04-04T15:52:53.793Z,99737.31
2019-04-04T15:57:47.474Z,99721.91
2019-04-04T16:02:40.945Z,99727.06
2019-04-04T16:07:34.320Z,99721.99
2019-04-04T16:12:27.913Z,99713.97
2019-04-04T16:17:21.492Z,99714.13
2019-04-04T16:22:15.077Z,99706.21
2019-04-04T16:27:08.735Z,99683.67
2019-04-04T16:32:02.215Z,99704.69
2019-04-04T16:36:55.603Z,99722.98
2019-04-04T16:42:01.212Z,99721.36
2019-04-04T16:46:44.392Z,99743.28
2019-04-04T16:51:37.775Z,99750.72
2019-04-04T16:56:31.174Z,99745.61
2019-04-04T17:01:24.657Z,99749.52
2019-04-04T17:06:18.144Z,99766.36
2019-04-04T17:11:11.613Z,99763.74
2019-04-04T17:16:05.308Z,99765.87
2019-04-04T17:20:58.927Z,99780.80
2019-04-04T17:25:52.451Z,99782.38
2019-04-04T17:30:46.258Z,99794.91
2019-04-04T17:35:39.722Z,99809.37
2019-04-04T17:40:33.581Z,99809.42
2019-04-04T17:45:27.601Z,99793.38
2019-04-04T17:50:21.301Z,99780.28
2019-04-04T17:55:15.086Z,99782.14
2019-04-04T18:00:11.483Z,99796.14
2019-04-04T18:05:05.970Z,99812.35
2019-04-04T18:09:59.365Z,99824.59
2019-04-04T18:14:52.882Z,99840.04
2019-04-04T18:19:46.320Z,99857.09
2019-04-04T18:24:39.911Z,99865.97
2019-04-04T18:29:33.313Z,99863.92
2019-04-04T18:34:26.926Z,99853.28
2019-04-04T18:39:20.476Z,99856.48
2019-04-04T18:44:13.876Z,99856.89
2019-04-04T18:49:07.293Z,99877.38
2019-04-04T18:54:00.804Z,99866.13
2019-04-04T18:58:54.346Z,99875.77
2019-04-04T19:03:47.935Z,99870.77
2019-04-04T19:08:41.563Z,99873.63
2019-04-04T19:13:44.271Z,99878.80
2019-04-04T19:18:34.925Z,99880.89
2019-04-04T19:23:29.171Z,99885.25
2019-04-04T19:28:22.831Z,99889.48
2019-04-04T19:33:17.375Z,99878.57
2019-04-04T19:38:10.990Z,99891.04
2019-04-04T19:43:17.214Z,99894.00
2019-04-04T19:48:00.525Z,99886.81
2019-04-04T19:52:54.046Z,99892.15
2019-04-04T19:57:47.828Z,99888.81
2019-04-04T20:02:44.415Z,99902.09
2019-04-04T20:07:38.035Z,99906.41
2019-04-04T20:12:31.920Z,99913.64
2019-04-04T20:17:25.288Z,99901.81
2019-04-04T20:22:18.854Z,99915.66
2019-04-04T20:27:12.362Z,99923.47
2019-04-04T20:32:05.938Z,99920.54
2019-04-04T20:36:59.658Z,99912.34
2019-04-04T20:41:53.157Z,99912.73
2019-04-04T20:46:49.079Z,99906.56
2019-04-04T20:51:42.620Z,99912.48
2019-04-04T20:56:36.101Z,99915.13
2019-04-04T21:01:29.830Z,99931.87
2019-04-04T21:06:23.321Z,99943.84
2019-04-04T21:11:17.863Z,99956.75
2019-04-04T21:16:11.145Z,99950.50
2019-04-04T21:21:04.826Z,99952.91
2019-04-04T21:25:58.391Z,99946.83
2019-04-04T21:30:52.078Z,99949.30
2019-04-04T21:35:45.565Z,99961.12
2019-04-04T21:40:39.262Z,99955.27
2019-04-04T21:45:32.825Z,99959.59
2019-04-04T21:50:26.429Z,99965.84
2019-04-04T21:55:20.009Z,99973.55
2019-04-04T22:00:14.015Z,99960.43
2019-04-04T22:05:08.557Z,99964.71
2019-04-04T22:10:02.583Z,99974.94
2019-04-04T22:14:56.209Z,99975.66
2019-04-04T22:19:49.770Z,99969.19
2019-04-04T22:24:43.721Z,99972.25
2019-04-04T22:29:37.267Z,100007.18
2019-04-04T22:34:30.981Z,100007.59
2019-04-04T22:39:24.915Z,100003.60
2019-04-04T22:44:18.934Z,99994.70
2019-04-04T22:49:12.736Z,99989.69
2019-04-04T22:54:06.320Z,99993.70
2019-04-04T22:59:00.295Z,99996.59
2019-04-04T23:03:53.971Z,99992.93
2019-04-04T23:08:47.652Z,99995.48
2019-04-04T23:13:41.270Z,99996.52
2019-04-04T23:18:34.956Z,99999.50
2019-04-04T23:23:28.684Z,100007.66
2019-04-04T23:28:22.391Z,100009.73
2019-04-04T23:33:16.017Z,100010.59
2019-04-04T23:38:09.574Z,100011.96
2019-04-04T23:43:07.065Z,100015.06
2019-04-04T23:48:01.450Z,100032.92
2019-04-04T23:52:55.149Z,100027.86
2019-04-04T23:57:51.274Z,100031.47
